sensor_id;sensor_type;location;lat;lon;timestamp;P1;durP1;ratioP1;P2;durP2;ratioP2
2123;SDS011;1068;52.460;13.528;2022-11-18T00:01:03;28.27;;;19.25;;
2123;SDS011;1068;52.460;13.528;2022-11-18T00:03:30;26.05;;;18.67;;
2123;SDS011;1068;52.460;13.528;2022-11-18T00:05:57;27.90;;;19.23;;
2123;SDS011;1068;52.460;13.528;2022-11-18T00:08:26;31.20;;;21.38;;
2123;SDS011;1068;52.460;13.528;2022-11-18T00:10:53;26.38;;;20.17;;
2123;SDS011;1068;52.460;13.528;2022-11-18T00:13:20;28.52;;;20.30;;
2123;SDS011;1068;52.460;13.528;2022-11-18T00:16:05;31.02;;;19.65;;
2123;SDS011;1068;52.460;13.528;2022-11-18T00:18:33;29.10;;;21.45;;
2123;SDS011;1068;52.460;13.528;2022-11-18T00:21:00;28.83;;;19.50;;
2123;SDS011;1068;52.460;13.528;2022-11-18T00:23:29;34.17;;;20.85;;
2123;SDS011;1068;52.460;13.528;2022-11-18T00:26:00;28.02;;;19.90;;
2123;SDS011;1068;52.460;13.528;2022-11-18T00:28:27;32.58;;;22.23;;
2123;SDS011;1068;52.460;13.528;2022-11-18T00:30:59;29.65;;;19.30;;
2123;SDS011;1068;52.460;13.528;2022-11-18T00:33:26;27.65;;;19.52;;
2123;SDS011;1068;52.460;13.528;2022-11-18T00:35:53;31.75;;;21.02;;
2123;SDS011;1068;52.460;13.528;2022-11-18T00:38:21;34.33;;;22.90;;
2123;SDS011;1068;52.460;13.528;2022-11-18T00:40:57;30.73;;;20.63;;
2123;SDS011;1068;52.460;13.528;2022-11-18T00:43:24;31.05;;;22.50;;
2123;SDS011;1068;52.460;13.528;2022-11-18T00:45:50;29.52;;;20.40;;
2123;SDS011;1068;52.460;13.528;2022-11-18T00:48:17;34.78;;;21.00;;
2123;SDS011;1068;52.460;13.528;2022-11-18T00:50:45;28.38;;;20.65;;
2123;SDS011;1068;52.460;13.528;2022-11-18T00:53:13;29.13;;;20.90;;
2123;SDS011;1068;52.460;13.528;2022-11-18T00:55:40;31.58;;;20.48;;
2123;SDS011;1068;52.460;13.528;2022-11-18T00:58:08;29.33;;;22.05;;
2123;SDS011;1068;52.460;13.528;2022-11-18T01:00:38;28.08;;;20.75;;
2123;SDS011;1068;52.460;13.528;2022-11-18T01:03:06;29.35;;;21.10;;
2123;SDS011;1068;52.460;13.528;2022-11-18T01:05:33;29.73;;;21.25;;
2123;SDS011;1068;52.460;13.528;2022-11-18T01:08:01;28.55;;;20.63;;
2123;SDS011;1068;52.460;13.528;2022-11-18T01:10:28;26.77;;;19.83;;
2123;SDS011;1068;52.460;13.528;2022-11-18T01:12:55;29.10;;;21.70;;
2123;SDS011;1068;52.460;13.528;2022-11-18T01:15:43;30.10;;;19.88;;
2123;SDS011;1068;52.460;13.528;2022-11-18T01:18:10;27.27;;;20.30;;
2123;SDS011;1068;52.460;13.528;2022-11-18T01:20:37;30.50;;;22.25;;
2123;SDS011;1068;52.460;13.528;2022-11-18T01:23:04;27.08;;;19.77;;
2123;SDS011;1068;52.460;13.528;2022-11-18T01:25:33;29.80;;;22.45;;
2123;SDS011;1068;52.460;13.528;2022-11-18T01:28:00;26.63;;;19.60;;
2123;SDS011;1068;52.460;13.528;2022-11-18T01:30:28;26.90;;;19.98;;
2123;SDS011;1068;52.460;13.528;2022-11-18T01:32:56;29.58;;;19.83;;
2123;SDS011;1068;52.460;13.528;2022-11-18T01:35:23;25.33;;;19.45;;
2123;SDS011;1068;52.460;13.528;2022-11-18T01:37:50;28.50;;;20.60;;
2123;SDS011;1068;52.460;13.528;2022-11-18T01:40:17;25.50;;;19.02;;
2123;SDS011;1068;52.460;13.528;2022-11-18T01:42:44;40.15;;;19.65;;
2123;SDS011;1068;52.460;13.528;2022-11-18T01:45:18;24.40;;;18.42;;
2123;SDS011;1068;52.460;13.528;2022-11-18T01:47:47;26.23;;;18.00;;
2123;SDS011;1068;52.460;13.528;2022-11-18T01:50:16;23.33;;;17.83;;
2123;SDS011;1068;52.460;13.528;2022-11-18T01:52:45;26.60;;;18.42;;
2123;SDS011;1068;52.460;13.528;2022-11-18T01:55:13;21.65;;;17.15;;
2123;SDS011;1068;52.460;13.528;2022-11-18T01:57:42;24.02;;;17.40;;
2123;SDS011;1068;52.460;13.528;2022-11-18T02:00:11;24.70;;;18.85;;
2123;SDS011;1068;52.460;13.528;2022-11-18T02:02:38;22.45;;;17.42;;
2123;SDS011;1068;52.460;13.528;2022-11-18T02:05:06;22.10;;;18.13;;
2123;SDS011;1068;52.460;13.528;2022-11-18T02:07:36;22.83;;;18.58;;
2123;SDS011;1068;52.460;13.528;2022-11-18T02:10:05;25.67;;;17.30;;
2123;SDS011;1068;52.460;13.528;2022-11-18T02:12:33;24.85;;;18.67;;
2123;SDS011;1068;52.460;13.528;2022-11-18T02:15:00;24.13;;;18.40;;
2123;SDS011;1068;52.460;13.528;2022-11-18T02:17:30;24.95;;;18.73;;
2123;SDS011;1068;52.460;13.528;2022-11-18T02:20:06;25.10;;;19.73;;
2123;SDS011;1068;52.460;13.528;2022-11-18T02:22:40;27.33;;;18.50;;
2123;SDS011;1068;52.460;13.528;2022-11-18T02:25:14;21.75;;;17.88;;
2123;SDS011;1068;52.460;13.528;2022-11-18T02:27:57;23.17;;;19.23;;
2123;SDS011;1068;52.460;13.528;2022-11-18T02:30:30;22.40;;;18.20;;
2123;SDS011;1068;52.460;13.528;2022-11-18T02:33:00;23.70;;;18.58;;
2123;SDS011;1068;52.460;13.528;2022-11-18T02:35:30;22.52;;;18.15;;
2123;SDS011;1068;52.460;13.528;2022-11-18T02:37:59;24.30;;;19.05;;
2123;SDS011;1068;52.460;13.528;2022-11-18T02:40:28;24.40;;;18.27;;
2123;SDS011;1068;52.460;13.528;2022-11-18T02:42:57;24.00;;;18.45;;
2123;SDS011;1068;52.460;13.528;2022-11-18T02:45:26;23.95;;;17.85;;
2123;SDS011;1068;52.460;13.528;2022-11-18T02:47:55;25.98;;;18.83;;
2123;SDS011;1068;52.460;13.528;2022-11-18T02:50:24;23.83;;;18.02;;
2123;SDS011;1068;52.460;13.528;2022-11-18T02:52:53;25.05;;;17.40;;
2123;SDS011;1068;52.460;13.528;2022-11-18T02:55:21;25.52;;;18.77;;
2123;SDS011;1068;52.460;13.528;2022-11-18T02:57:49;27.20;;;19.48;;
2123;SDS011;1068;52.460;13.528;2022-11-18T03:00:19;25.70;;;18.15;;
2123;SDS011;1068;52.460;13.528;2022-11-18T03:02:47;24.27;;;17.50;;
2123;SDS011;1068;52.460;13.528;2022-11-18T03:05:17;23.40;;;18.27;;
2123;SDS011;1068;52.460;13.528;2022-11-18T03:07:45;24.90;;;18.65;;
2123;SDS011;1068;52.460;13.528;2022-11-18T03:10:14;23.20;;;17.30;;
2123;SDS011;1068;52.460;13.528;2022-11-18T03:12:42;20.25;;;16.92;;
2123;SDS011;1068;52.460;13.528;2022-11-18T03:15:14;21.83;;;17.83;;
2123;SDS011;1068;52.460;13.528;2022-11-18T03:17:44;23.42;;;16.02;;
2123;SDS011;1068;52.460;13.528;2022-11-18T03:20:17;24.98;;;17.80;;
2123;SDS011;1068;52.460;13.528;2022-11-18T03:22:47;23.95;;;18.77;;
2123;SDS011;1068;52.460;13.528;2022-11-18T03:25:18;25.98;;;17.90;;
2123;SDS011;1068;52.460;13.528;2022-11-18T03:27:49;24.63;;;18.75;;
2123;SDS011;1068;52.460;13.528;2022-11-18T03:30:20;21.88;;;17.25;;
2123;SDS011;1068;52.460;13.528;2022-11-18T03:32:49;27.40;;;18.90;;
2123;SDS011;1068;52.460;13.528;2022-11-18T03:35:20;23.05;;;17.85;;
2123;SDS011;1068;52.460;13.528;2022-11-18T03:37:48;26.05;;;19.40;;
2123;SDS011;1068;52.460;13.528;2022-11-18T03:40:19;24.38;;;17.70;;
2123;SDS011;1068;52.460;13.528;2022-11-18T03:42:51;25.98;;;19.55;;
2123;SDS011;1068;52.460;13.528;2022-11-18T03:45:24;23.67;;;19.35;;
2123;SDS011;1068;52.460;13.528;2022-11-18T03:47:53;28.42;;;19.38;;
2123;SDS011;1068;52.460;13.528;2022-11-18T03:50:25;23.95;;;18.35;;
2123;SDS011;1068;52.460;13.528;2022-11-18T03:52:53;27.33;;;19.27;;
2123;SDS011;1068;52.460;13.528;2022-11-18T03:55:21;25.02;;;19.55;;
2123;SDS011;1068;52.460;13.528;2022-11-18T03:57:53;24.73;;;19.30;;
2123;SDS011;1068;52.460;13.528;2022-11-18T04:00:20;24.35;;;18.17;;
2123;SDS011;1068;52.460;13.528;2022-11-18T04:02:47;26.45;;;20.25;;
2123;SDS011;1068;52.460;13.528;2022-11-18T04:05:15;26.27;;;19.27;;
2123;SDS011;1068;52.460;13.528;2022-11-18T04:07:48;25.30;;;18.33;;
2123;SDS011;1068;52.460;13.528;2022-11-18T04:10:17;27.45;;;20.23;;
2123;SDS011;1068;52.460;13.528;2022-11-18T04:12:45;23.42;;;19.05;;
2123;SDS011;1068;52.460;13.528;2022-11-18T04:15:14;25.08;;;18.58;;
2123;SDS011;1068;52.460;13.528;2022-11-18T04:17:42;25.67;;;19.75;;
2123;SDS011;1068;52.460;13.528;2022-11-18T04:20:12;24.33;;;19.00;;
2123;SDS011;1068;52.460;13.528;2022-11-18T04:22:41;24.92;;;19.65;;
2123;SDS011;1068;52.460;13.528;2022-11-18T04:25:10;28.33;;;20.15;;
2123;SDS011;1068;52.460;13.528;2022-11-18T04:27:37;28.55;;;20.15;;
2123;SDS011;1068;52.460;13.528;2022-11-18T04:30:04;26.25;;;20.27;;
2123;SDS011;1068;52.460;13.528;2022-11-18T04:32:32;25.38;;;19.77;;
2123;SDS011;1068;52.460;13.528;2022-11-18T04:34:59;24.20;;;19.30;;
2123;SDS011;1068;52.460;13.528;2022-11-18T04:37:27;23.83;;;18.63;;
2123;SDS011;1068;52.460;13.528;2022-11-18T04:39:54;26.80;;;19.60;;
2123;SDS011;1068;52.460;13.528;2022-11-18T04:42:22;24.10;;;19.17;;
2123;SDS011;1068;52.460;13.528;2022-11-18T04:44:49;30.17;;;19.63;;
2123;SDS011;1068;52.460;13.528;2022-11-18T04:47:17;28.30;;;20.60;;
2123;SDS011;1068;52.460;13.528;2022-11-18T04:49:44;24.25;;;19.33;;
2123;SDS011;1068;52.460;13.528;2022-11-18T04:52:11;24.38;;;18.67;;
2123;SDS011;1068;52.460;13.528;2022-11-18T04:54:38;28.35;;;20.08;;
2123;SDS011;1068;52.460;13.528;2022-11-18T04:57:05;28.30;;;21.17;;
2123;SDS011;1068;52.460;13.528;2022-11-18T04:59:33;25.35;;;19.52;;
2123;SDS011;1068;52.460;13.528;2022-11-18T05:02:01;28.35;;;20.67;;
2123;SDS011;1068;52.460;13.528;2022-11-18T05:04:28;33.45;;;21.92;;
2123;SDS011;1068;52.460;13.528;2022-11-18T05:06:56;31.17;;;21.80;;
2123;SDS011;1068;52.460;13.528;2022-11-18T05:09:23;31.92;;;21.08;;
2123;SDS011;1068;52.460;13.528;2022-11-18T05:11:50;34.63;;;21.88;;
2123;SDS011;1068;52.460;13.528;2022-11-18T05:14:38;32.38;;;21.33;;
2123;SDS011;1068;52.460;13.528;2022-11-18T05:17:06;32.47;;;20.98;;
2123;SDS011;1068;52.460;13.528;2022-11-18T05:19:33;33.63;;;22.73;;
2123;SDS011;1068;52.460;13.528;2022-11-18T05:22:00;35.45;;;21.20;;
2123;SDS011;1068;52.460;13.528;2022-11-18T05:24:27;39.63;;;23.42;;
2123;SDS011;1068;52.460;13.528;2022-11-18T05:26:54;40.08;;;23.45;;
2123;SDS011;1068;52.460;13.528;2022-11-18T05:29:21;38.17;;;24.90;;
2123;SDS011;1068;52.460;13.528;2022-11-18T05:31:50;37.38;;;23.85;;
2123;SDS011;1068;52.460;13.528;2022-11-18T05:34:17;34.22;;;23.80;;
2123;SDS011;1068;52.460;13.528;2022-11-18T05:36:45;37.47;;;24.85;;
2123;SDS011;1068;52.460;13.528;2022-11-18T05:39:12;38.33;;;24.02;;
2123;SDS011;1068;52.460;13.528;2022-11-18T05:41:39;39.97;;;25.95;;
2123;SDS011;1068;52.460;13.528;2022-11-18T05:44:24;36.78;;;24.88;;
2123;SDS011;1068;52.460;13.528;2022-11-18T05:46:52;40.47;;;25.27;;
2123;SDS011;1068;52.460;13.528;2022-11-18T05:49:19;37.13;;;24.95;;
2123;SDS011;1068;52.460;13.528;2022-11-18T05:51:46;32.55;;;22.23;;
2123;SDS011;1068;52.460;13.528;2022-11-18T05:54:14;35.35;;;22.40;;
2123;SDS011;1068;52.460;13.528;2022-11-18T05:56:41;35.75;;;23.48;;
2123;SDS011;1068;52.460;13.528;2022-11-18T05:59:10;35.35;;;21.77;;
2123;SDS011;1068;52.460;13.528;2022-11-18T06:01:39;30.98;;;21.70;;
2123;SDS011;1068;52.460;13.528;2022-11-18T06:04:09;33.97;;;21.38;;
2123;SDS011;1068;52.460;13.528;2022-11-18T06:06:37;30.48;;;21.52;;
2123;SDS011;1068;52.460;13.528;2022-11-18T06:09:05;31.60;;;22.67;;
2123;SDS011;1068;52.460;13.528;2022-11-18T06:11:35;34.40;;;22.90;;
2123;SDS011;1068;52.460;13.528;2022-11-18T06:14:04;33.42;;;21.85;;
2123;SDS011;1068;52.460;13.528;2022-11-18T06:16:32;34.17;;;22.33;;
2123;SDS011;1068;52.460;13.528;2022-11-18T06:19:00;30.27;;;20.10;;
2123;SDS011;1068;52.460;13.528;2022-11-18T06:21:28;26.70;;;18.23;;
2123;SDS011;1068;52.460;13.528;2022-11-18T06:23:56;29.17;;;20.48;;
2123;SDS011;1068;52.460;13.528;2022-11-18T06:26:23;29.67;;;21.15;;
2123;SDS011;1068;52.460;13.528;2022-11-18T06:28:50;26.23;;;18.45;;
2123;SDS011;1068;52.460;13.528;2022-11-18T06:31:17;27.25;;;18.65;;
2123;SDS011;1068;52.460;13.528;2022-11-18T06:33:45;26.95;;;18.17;;
2123;SDS011;1068;52.460;13.528;2022-11-18T06:36:12;28.38;;;18.40;;
2123;SDS011;1068;52.460;13.528;2022-11-18T06:38:40;32.30;;;19.65;;
2123;SDS011;1068;52.460;13.528;2022-11-18T06:41:07;26.05;;;18.55;;
2123;SDS011;1068;52.460;13.528;2022-11-18T06:43:34;26.67;;;18.30;;
2123;SDS011;1068;52.460;13.528;2022-11-18T06:46:05;27.33;;;19.40;;
2123;SDS011;1068;52.460;13.528;2022-11-18T06:48:50;27.42;;;18.15;;
2123;SDS011;1068;52.460;13.528;2022-11-18T06:51:18;25.80;;;18.23;;
2123;SDS011;1068;52.460;13.528;2022-11-18T06:53:46;27.90;;;18.25;;
2123;SDS011;1068;52.460;13.528;2022-11-18T06:56:14;29.65;;;17.17;;
2123;SDS011;1068;52.460;13.528;2022-11-18T06:58:42;29.90;;;18.45;;
2123;SDS011;1068;52.460;13.528;2022-11-18T07:01:10;26.70;;;17.75;;
2123;SDS011;1068;52.460;13.528;2022-11-18T07:03:37;27.83;;;18.88;;
2123;SDS011;1068;52.460;13.528;2022-11-18T07:06:04;25.73;;;16.70;;
2123;SDS011;1068;52.460;13.528;2022-11-18T07:08:33;25.85;;;17.70;;
2123;SDS011;1068;52.460;13.528;2022-11-18T07:11:02;27.80;;;18.35;;
2123;SDS011;1068;52.460;13.528;2022-11-18T07:13:30;28.02;;;18.60;;
2123;SDS011;1068;52.460;13.528;2022-11-18T07:16:03;25.50;;;18.30;;
2123;SDS011;1068;52.460;13.528;2022-11-18T07:18:31;24.67;;;16.92;;
2123;SDS011;1068;52.460;13.528;2022-11-18T07:21:01;27.67;;;18.23;;
2123;SDS011;1068;52.460;13.528;2022-11-18T07:23:29;25.67;;;17.10;;
2123;SDS011;1068;52.460;13.528;2022-11-18T07:25:56;24.08;;;17.45;;
2123;SDS011;1068;52.460;13.528;2022-11-18T07:28:25;27.13;;;18.33;;
2123;SDS011;1068;52.460;13.528;2022-11-18T07:30:52;26.77;;;16.83;;
2123;SDS011;1068;52.460;13.528;2022-11-18T07:33:19;22.88;;;17.05;;
2123;SDS011;1068;52.460;13.528;2022-11-18T07:35:46;24.75;;;17.10;;
2123;SDS011;1068;52.460;13.528;2022-11-18T07:38:13;25.42;;;16.80;;
2123;SDS011;1068;52.460;13.528;2022-11-18T07:40:40;27.00;;;18.10;;
2123;SDS011;1068;52.460;13.528;2022-11-18T07:43:08;26.40;;;17.38;;
2123;SDS011;1068;52.460;13.528;2022-11-18T07:45:36;24.40;;;16.77;;
2123;SDS011;1068;52.460;13.528;2022-11-18T07:48:04;27.85;;;16.77;;
2123;SDS011;1068;52.460;13.528;2022-11-18T07:50:31;24.58;;;16.85;;
2123;SDS011;1068;52.460;13.528;2022-11-18T07:52:58;23.80;;;16.60;;
2123;SDS011;1068;52.460;13.528;2022-11-18T07:55:25;21.52;;;16.90;;
2123;SDS011;1068;52.460;13.528;2022-11-18T07:57:54;21.92;;;15.73;;
2123;SDS011;1068;52.460;13.528;2022-11-18T08:00:21;22.80;;;15.93;;
2123;SDS011;1068;52.460;13.528;2022-11-18T08:02:50;25.23;;;16.20;;
2123;SDS011;1068;52.460;13.528;2022-11-18T08:05:17;25.08;;;17.30;;
2123;SDS011;1068;52.460;13.528;2022-11-18T08:07:44;21.52;;;15.80;;
2123;SDS011;1068;52.460;13.528;2022-11-18T08:10:11;20.25;;;15.18;;
2123;SDS011;1068;52.460;13.528;2022-11-18T08:12:38;23.63;;;15.50;;
2123;SDS011;1068;52.460;13.528;2022-11-18T08:15:06;31.63;;;19.45;;
2123;SDS011;1068;52.460;13.528;2022-11-18T08:17:33;24.17;;;16.55;;
2123;SDS011;1068;52.460;13.528;2022-11-18T08:20:02;25.40;;;16.00;;
2123;SDS011;1068;52.460;13.528;2022-11-18T08:22:29;21.52;;;15.90;;
2123;SDS011;1068;52.460;13.528;2022-11-18T08:24:56;22.33;;;15.90;;
2123;SDS011;1068;52.460;13.528;2022-11-18T08:27:23;23.98;;;17.10;;
2123;SDS011;1068;52.460;13.528;2022-11-18T08:29:50;24.45;;;16.45;;
2123;SDS011;1068;52.460;13.528;2022-11-18T08:32:17;25.33;;;16.95;;
2123;SDS011;1068;52.460;13.528;2022-11-18T08:34:44;22.42;;;16.40;;
2123;SDS011;1068;52.460;13.528;2022-11-18T08:37:12;21.20;;;15.75;;
2123;SDS011;1068;52.460;13.528;2022-11-18T08:39:39;23.42;;;16.95;;
2123;SDS011;1068;52.460;13.528;2022-11-18T08:42:07;22.48;;;16.90;;
2123;SDS011;1068;52.460;13.528;2022-11-18T08:44:35;22.08;;;17.50;;
2123;SDS011;1068;52.460;13.528;2022-11-18T08:47:02;23.67;;;16.08;;
2123;SDS011;1068;52.460;13.528;2022-11-18T08:49:29;21.92;;;15.80;;
2123;SDS011;1068;52.460;13.528;2022-11-18T08:52:01;22.20;;;16.75;;
2123;SDS011;1068;52.460;13.528;2022-11-18T08:54:29;22.63;;;17.02;;
2123;SDS011;1068;52.460;13.528;2022-11-18T08:56:56;22.15;;;16.10;;
2123;SDS011;1068;52.460;13.528;2022-11-18T08:59:23;23.20;;;16.58;;
2123;SDS011;1068;52.460;13.528;2022-11-18T09:01:51;23.50;;;15.55;;
2123;SDS011;1068;52.460;13.528;2022-11-18T09:04:18;23.15;;;16.88;;
2123;SDS011;1068;52.460;13.528;2022-11-18T09:06:45;22.30;;;15.32;;
2123;SDS011;1068;52.460;13.528;2022-11-18T09:09:13;23.08;;;15.55;;
2123;SDS011;1068;52.460;13.528;2022-11-18T09:11:41;22.77;;;16.83;;
2123;SDS011;1068;52.460;13.528;2022-11-18T09:14:09;23.25;;;16.75;;
2123;SDS011;1068;52.460;13.528;2022-11-18T09:16:37;22.92;;;15.50;;
2123;SDS011;1068;52.460;13.528;2022-11-18T09:19:04;21.80;;;15.70;;
2123;SDS011;1068;52.460;13.528;2022-11-18T09:21:31;24.33;;;16.00;;
2123;SDS011;1068;52.460;13.528;2022-11-18T09:24:02;24.88;;;17.27;;
2123;SDS011;1068;52.460;13.528;2022-11-18T09:26:29;23.00;;;16.40;;
2123;SDS011;1068;52.460;13.528;2022-11-18T09:28:58;24.48;;;16.40;;
2123;SDS011;1068;52.460;13.528;2022-11-18T09:31:25;21.20;;;15.90;;
2123;SDS011;1068;52.460;13.528;2022-11-18T09:33:52;23.02;;;18.70;;
2123;SDS011;1068;52.460;13.528;2022-11-18T09:36:20;20.95;;;15.70;;
2123;SDS011;1068;52.460;13.528;2022-11-18T09:38:47;18.90;;;15.05;;
2123;SDS011;1068;52.460;13.528;2022-11-18T09:41:19;20.50;;;15.75;;
2123;SDS011;1068;52.460;13.528;2022-11-18T09:43:51;18.92;;;13.60;;
2123;SDS011;1068;52.460;13.528;2022-11-18T09:46:24;17.90;;;13.70;;
2123;SDS011;1068;52.460;13.528;2022-11-18T09:48:53;16.60;;;13.40;;
2123;SDS011;1068;52.460;13.528;2022-11-18T09:51:38;18.88;;;14.07;;
2123;SDS011;1068;52.460;13.528;2022-11-18T09:54:07;17.67;;;14.20;;
2123;SDS011;1068;52.460;13.528;2022-11-18T09:56:35;18.13;;;14.52;;
2123;SDS011;1068;52.460;13.528;2022-11-18T09:59:03;18.63;;;12.98;;
2123;SDS011;1068;52.460;13.528;2022-11-18T10:01:31;18.45;;;14.52;;
2123;SDS011;1068;52.460;13.528;2022-11-18T10:04:00;18.30;;;14.18;;
2123;SDS011;1068;52.460;13.528;2022-11-18T10:06:28;17.95;;;13.90;;
2123;SDS011;1068;52.460;13.528;2022-11-18T10:09:09;19.50;;;14.63;;
2123;SDS011;1068;52.460;13.528;2022-11-18T10:11:39;16.80;;;12.70;;
2123;SDS011;1068;52.460;13.528;2022-11-18T10:14:12;16.67;;;13.70;;
2123;SDS011;1068;52.460;13.528;2022-11-18T10:16:45;17.70;;;13.43;;
2123;SDS011;1068;52.460;13.528;2022-11-18T10:19:17;14.77;;;12.10;;
2123;SDS011;1068;52.460;13.528;2022-11-18T10:21:48;17.08;;;12.57;;
2123;SDS011;1068;52.460;13.528;2022-11-18T10:24:18;17.55;;;12.93;;
2123;SDS011;1068;52.460;13.528;2022-11-18T10:26:45;18.23;;;14.73;;
2123;SDS011;1068;52.460;13.528;2022-11-18T10:29:12;27.55;;;19.60;;
2123;SDS011;1068;52.460;13.528;2022-11-18T10:31:51;15.55;;;12.20;;
2123;SDS011;1068;52.460;13.528;2022-11-18T10:34:18;20.90;;;13.07;;
2123;SDS011;1068;52.460;13.528;2022-11-18T10:37:00;14.75;;;12.02;;
2123;SDS011;1068;52.460;13.528;2022-11-18T10:39:28;14.30;;;11.13;;
2123;SDS011;1068;52.460;13.528;2022-11-18T10:41:56;14.35;;;11.50;;
2123;SDS011;1068;52.460;13.528;2022-11-18T10:44:30;15.73;;;11.65;;
2123;SDS011;1068;52.460;13.528;2022-11-18T10:47:20;13.57;;;10.93;;
2123;SDS011;1068;52.460;13.528;2022-11-18T10:49:48;14.77;;;11.65;;
2123;SDS011;1068;52.460;13.528;2022-11-18T10:52:15;13.23;;;10.35;;
2123;SDS011;1068;52.460;13.528;2022-11-18T10:54:45;13.15;;;11.10;;
2123;SDS011;1068;52.460;13.528;2022-11-18T10:57:30;14.27;;;10.52;;
2123;SDS011;1068;52.460;13.528;2022-11-18T11:00:01;10.60;;;9.40;;
2123;SDS011;1068;52.460;13.528;2022-11-18T11:02:30;14.57;;;10.38;;
2123;SDS011;1068;52.460;13.528;2022-11-18T11:05:02;14.32;;;11.50;;
2123;SDS011;1068;52.460;13.528;2022-11-18T11:07:33;9.73;;;8.73;;
2123;SDS011;1068;52.460;13.528;2022-11-18T11:10:01;11.80;;;9.32;;
2123;SDS011;1068;52.460;13.528;2022-11-18T11:12:40;11.18;;;9.63;;
2123;SDS011;1068;52.460;13.528;2022-11-18T11:15:12;12.02;;;9.38;;
2123;SDS011;1068;52.460;13.528;2022-11-18T11:17:44;12.60;;;9.95;;
2123;SDS011;1068;52.460;13.528;2022-11-18T11:20:36;13.35;;;9.65;;
2123;SDS011;1068;52.460;13.528;2022-11-18T11:23:07;14.60;;;9.93;;
2123;SDS011;1068;52.460;13.528;2022-11-18T11:25:36;11.23;;;9.05;;
2123;SDS011;1068;52.460;13.528;2022-11-18T11:28:06;12.77;;;10.15;;
2123;SDS011;1068;52.460;13.528;2022-11-18T11:30:34;11.82;;;9.85;;
2123;SDS011;1068;52.460;13.528;2022-11-18T11:33:07;13.43;;;9.93;;
2123;SDS011;1068;52.460;13.528;2022-11-18T11:35:40;11.23;;;8.88;;
2123;SDS011;1068;52.460;13.528;2022-11-18T11:38:10;14.13;;;11.07;;
2123;SDS011;1068;52.460;13.528;2022-11-18T11:40:43;10.07;;;8.93;;
2123;SDS011;1068;52.460;13.528;2022-11-18T11:43:20;13.85;;;9.95;;
2123;SDS011;1068;52.460;13.528;2022-11-18T11:45:56;34.15;;;17.88;;
2123;SDS011;1068;52.460;13.528;2022-11-18T11:48:29;16.13;;;10.15;;
2123;SDS011;1068;52.460;13.528;2022-11-18T11:51:01;10.80;;;9.70;;
2123;SDS011;1068;52.460;13.528;2022-11-18T11:53:41;10.68;;;9.55;;
2123;SDS011;1068;52.460;13.528;2022-11-18T11:56:14;14.70;;;9.00;;
2123;SDS011;1068;52.460;13.528;2022-11-18T11:58:48;13.48;;;9.57;;
2123;SDS011;1068;52.460;13.528;2022-11-18T12:01:25;11.90;;;10.07;;
2123;SDS011;1068;52.460;13.528;2022-11-18T12:03:57;9.38;;;8.40;;
2123;SDS011;1068;52.460;13.528;2022-11-18T12:06:26;9.30;;;8.05;;
2123;SDS011;1068;52.460;13.528;2022-11-18T12:08:56;8.90;;;7.55;;
2123;SDS011;1068;52.460;13.528;2022-11-18T12:11:26;12.52;;;9.55;;
2123;SDS011;1068;52.460;13.528;2022-11-18T12:13:58;11.27;;;8.40;;
2123;SDS011;1068;52.460;13.528;2022-11-18T12:16:28;14.77;;;9.05;;
2123;SDS011;1068;52.460;13.528;2022-11-18T12:19:00;11.23;;;8.18;;
2123;SDS011;1068;52.460;13.528;2022-11-18T12:24:23;9.05;;;8.13;;
2123;SDS011;1068;52.460;13.528;2022-11-18T12:26:55;9.57;;;7.93;;
2123;SDS011;1068;52.460;13.528;2022-11-18T12:29:23;9.32;;;7.85;;
2123;SDS011;1068;52.460;13.528;2022-11-18T12:31:51;11.27;;;8.45;;
2123;SDS011;1068;52.460;13.528;2022-11-18T12:34:38;10.50;;;7.10;;
2123;SDS011;1068;52.460;13.528;2022-11-18T12:39:56;7.50;;;6.47;;
2123;SDS011;1068;52.460;13.528;2022-11-18T12:42:34;7.03;;;6.43;;
2123;SDS011;1068;52.460;13.528;2022-11-18T12:48:25;7.57;;;6.78;;
2123;SDS011;1068;52.460;13.528;2022-11-18T12:50:54;6.50;;;5.95;;
2123;SDS011;1068;52.460;13.528;2022-11-18T12:53:27;8.73;;;5.75;;
2123;SDS011;1068;52.460;13.528;2022-11-18T12:55:55;5.53;;;5.00;;
2123;SDS011;1068;52.460;13.528;2022-11-18T12:58:23;6.18;;;5.68;;
2123;SDS011;1068;52.460;13.528;2022-11-18T13:01:02;5.55;;;5.05;;
2123;SDS011;1068;52.460;13.528;2022-11-18T13:03:30;5.45;;;4.97;;
2123;SDS011;1068;52.460;13.528;2022-11-18T13:06:00;6.53;;;5.40;;
2123;SDS011;1068;52.460;13.528;2022-11-18T13:08:28;8.88;;;5.90;;
2123;SDS011;1068;52.460;13.528;2022-11-18T13:10:56;6.82;;;6.13;;
2123;SDS011;1068;52.460;13.528;2022-11-18T13:13:41;9.40;;;7.78;;
2123;SDS011;1068;52.460;13.528;2022-11-18T13:16:15;13.02;;;9.45;;
2123;SDS011;1068;52.460;13.528;2022-11-18T13:19:01;5.80;;;5.28;;
2123;SDS011;1068;52.460;13.528;2022-11-18T13:21:30;5.05;;;4.20;;
2123;SDS011;1068;52.460;13.528;2022-11-18T13:24:15;5.90;;;5.30;;
2123;SDS011;1068;52.460;13.528;2022-11-18T13:26:43;6.13;;;5.32;;
2123;SDS011;1068;52.460;13.528;2022-11-18T13:29:16;5.82;;;5.10;;
2123;SDS011;1068;52.460;13.528;2022-11-18T13:31:48;7.00;;;5.93;;
2123;SDS011;1068;52.460;13.528;2022-11-18T13:34:17;5.93;;;4.93;;
2123;SDS011;1068;52.460;13.528;2022-11-18T13:36:47;5.75;;;5.25;;
2123;SDS011;1068;52.460;13.528;2022-11-18T13:39:19;5.00;;;4.53;;
2123;SDS011;1068;52.460;13.528;2022-11-18T13:41:56;4.63;;;4.22;;
2123;SDS011;1068;52.460;13.528;2022-11-18T13:44:25;6.85;;;6.22;;
2123;SDS011;1068;52.460;13.528;2022-11-18T13:46:53;4.85;;;4.30;;
2123;SDS011;1068;52.460;13.528;2022-11-18T13:49:27;4.75;;;4.40;;
2123;SDS011;1068;52.460;13.528;2022-11-18T13:51:59;5.10;;;4.70;;
2123;SDS011;1068;52.460;13.528;2022-11-18T13:54:34;5.43;;;4.40;;
2123;SDS011;1068;52.460;13.528;2022-11-18T13:57:01;4.53;;;4.13;;
2123;SDS011;1068;52.460;13.528;2022-11-18T13:59:28;4.75;;;4.45;;
2123;SDS011;1068;52.460;13.528;2022-11-18T14:01:58;4.50;;;4.10;;
2123;SDS011;1068;52.460;13.528;2022-11-18T14:04:25;5.00;;;4.60;;
2123;SDS011;1068;52.460;13.528;2022-11-18T14:06:53;5.43;;;4.35;;
2123;SDS011;1068;52.460;13.528;2022-11-18T14:09:51;7.47;;;6.88;;
2123;SDS011;1068;52.460;13.528;2022-11-18T14:12:21;5.38;;;4.88;;
2123;SDS011;1068;52.460;13.528;2022-11-18T14:14:48;5.30;;;4.90;;
2123;SDS011;1068;52.460;13.528;2022-11-18T14:17:16;4.43;;;4.13;;
2123;SDS011;1068;52.460;13.528;2022-11-18T14:19:46;5.43;;;4.72;;
2123;SDS011;1068;52.460;13.528;2022-11-18T14:22:14;7.03;;;4.90;;
2123;SDS011;1068;52.460;13.528;2022-11-18T14:24:42;4.30;;;3.92;;
2123;SDS011;1068;52.460;13.528;2022-11-18T14:29:57;3.67;;;3.40;;
2123;SDS011;1068;52.460;13.528;2022-11-18T14:32:24;3.47;;;3.28;;
2123;SDS011;1068;52.460;13.528;2022-11-18T14:34:56;4.47;;;4.07;;
2123;SDS011;1068;52.460;13.528;2022-11-18T14:37:23;4.43;;;4.03;;
2123;SDS011;1068;52.460;13.528;2022-11-18T14:39:53;3.95;;;3.58;;
2123;SDS011;1068;52.460;13.528;2022-11-18T14:42:20;4.35;;;3.95;;
2123;SDS011;1068;52.460;13.528;2022-11-18T14:44:47;8.10;;;7.38;;
2123;SDS011;1068;52.460;13.528;2022-11-18T14:47:18;5.85;;;5.38;;
2123;SDS011;1068;52.460;13.528;2022-11-18T14:49:46;4.32;;;4.03;;
2123;SDS011;1068;52.460;13.528;2022-11-18T14:52:14;4.18;;;3.78;;
2123;SDS011;1068;52.460;13.528;2022-11-18T14:54:42;6.25;;;5.75;;
2123;SDS011;1068;52.460;13.528;2022-11-18T14:57:09;5.22;;;4.03;;
2123;SDS011;1068;52.460;13.528;2022-11-18T14:59:38;4.10;;;3.70;;
2123;SDS011;1068;52.460;13.528;2022-11-18T15:02:11;4.30;;;3.90;;
2123;SDS011;1068;52.460;13.528;2022-11-18T15:04:40;4.10;;;3.80;;
2123;SDS011;1068;52.460;13.528;2022-11-18T15:07:08;5.80;;;5.13;;